Time;durP1;ratioP1;P1;durP2;ratioP2;P2;SDS_P1;SDS_P2;PMS_P1;PMS_P2;Temp;Humidity;BMP_temperature;BMP_pressure;BME280_temperature;BME280_humidity;BME280_pressure;Samples;Min_cycle;Max_cycle;Signal;HPM_P1;HPM_P2
2021/10/29 00:01:34;;;;;;;39.58;28.40;;;6.20;71.60;;;5.28;57.52;95169.00;5077748;28;20216;-80
2021/10/29 00:04:01;;;;;;;39.25;28.25;;;6.20;71.80;;;5.24;57.41;95175.47;5056408;28;20206;-82
2021/10/29 00:06:29;;;;;;;38.05;27.92;;;6.10;71.50;;;5.23;57.47;95170.44;5072809;28;20219;-82
2021/10/29 00:08:57;;;;;;;40.10;26.92;;;6.10;71.50;;;5.19;57.46;95163.88;5076639;28;20244;-83
2021/10/29 00:11:24;;;;;;;44.00;28.20;;;6.10;71.60;;;5.19;57.38;95166.47;5081580;28;20222;-82
2021/10/29 00:13:51;;;;;;;35.90;25.83;;;6.10;71.70;;;5.13;57.57;95158.31;5072952;28;20540;-80
2021/10/29 00:16:18;;;;;;;41.50;28.10;;;6.10;71.80;;;5.16;57.65;95159.00;5068035;28;20576;-80
2021/10/29 00:18:46;;;;;;;40.28;28.45;;;6.00;71.80;;;5.14;57.75;95166.97;5075949;28;20422;-80
2021/10/29 00:21:13;;;;;;;37.22;27.45;;;6.00;71.80;;;5.09;57.74;95164.81;5059179;28;20226;-80
2021/10/29 00:23:40;;;;;;;41.35;27.75;;;5.90;71.70;;;5.04;57.85;95150.63;5092758;28;20243;-80
2021/10/29 00:26:07;;;;;;;39.33;26.95;;;6.00;71.70;;;5.07;57.69;95160.72;5075798;28;20642;-80
2021/10/29 00:28:34;;;;;;;41.47;27.55;;;6.00;71.90;;;4.99;57.37;95150.25;5092597;28;20244;-83
2021/10/29 00:31:02;;;;;;;38.47;27.77;;;5.90;71.80;;;5.02;57.64;95155.16;5080332;28;20553;-83
2021/10/29 00:33:29;;;;;;;40.38;27.67;;;5.90;71.80;;;5.00;57.76;95155.31;5055858;28;20674;-83
2021/10/29 00:35:56;;;;;;;43.60;29.10;;;5.90;71.90;;;4.94;57.87;95153.31;5055892;28;20203;-82
2021/10/29 00:38:25;;;;;;;39.78;27.80;;;5.90;71.90;;;4.97;57.92;95156.41;5055637;28;20647;-82
2021/10/29 00:40:53;;;;;;;40.60;27.10;;;5.90;72.00;;;4.87;57.79;95145.31;5055759;28;20714;-82
2021/10/29 00:43:20;;;;;;;42.22;27.98;;;5.80;71.90;;;4.93;57.82;95152.50;5055796;28;20587;-82
2021/10/29 00:45:48;;;;;;;41.70;28.17;;;5.80;72.90;;;4.93;57.95;95162.91;5055400;28;20298;-81
2021/10/29 00:48:16;;;;;;;40.40;27.20;;;5.80;72.00;;;4.91;57.76;95151.03;5071856;28;20905;-82
2021/10/29 00:50:43;;;;;;;42.33;29.50;;;5.80;72.00;;;4.85;57.89;95152.44;5060334;28;20242;-83
2021/10/29 00:53:11;;;;;;;40.33;26.70;;;5.80;72.10;;;4.86;57.81;95154.06;5072102;28;20648;-82
2021/10/29 00:55:38;;;;;;;40.50;27.20;;;5.80;72.10;;;4.78;57.81;95147.00;5055151;28;20669;-83
2021/10/29 00:58:05;;;;;;;40.42;27.60;;;5.70;72.10;;;4.79;58.04;95148.63;5083099;28;20257;-82
2021/10/29 01:00:33;;;;;;;42.42;28.33;;;5.70;72.20;;;4.79;57.94;95158.22;5064874;28;20744;-83
2021/10/29 01:03:00;;;;;;;36.83;27.50;;;5.70;72.20;;;4.73;57.94;95138.84;5073610;28;20218;-83
2021/10/29 01:05:29;;;;;;;40.65;28.15;;;5.70;72.20;;;4.76;57.92;95143.75;5074968;28;20198;-83
2021/10/29 01:07:59;;;;;;;43.10;29.08;;;5.70;72.50;;;4.76;58.08;95135.13;5075370;28;20265;-82
2021/10/29 01:10:30;;;;;;;41.50;28.83;;;5.60;72.30;;;4.72;57.84;95129.41;5074667;28;20195;-82
2021/10/29 01:12:58;;;;;;;42.88;29.35;;;5.60;72.70;;;4.70;57.95;95122.75;5073518;28;20563;-82
2021/10/29 01:15:25;;;;;;;41.72;28.85;;;5.60;72.30;;;4.71;57.96;95126.97;5091971;28;20195;-82
2021/10/29 01:17:53;;;;;;;43.05;29.20;;;5.60;72.50;;;4.68;58.14;95120.31;5074927;28;20227;-82
2021/10/29 01:20:24;;;;;;;40.83;28.10;;;5.60;72.30;;;4.66;58.11;95130.03;5074022;28;20195;-82
2021/10/29 01:22:52;;;;;;;40.58;27.27;;;5.60;72.60;;;4.60;58.31;95122.81;5078039;28;20612;-81
2021/10/29 01:25:20;;;;;;;42.13;28.83;;;5.50;72.50;;;4.63;58.01;95130.34;5054743;28;20238;-82
2021/10/29 01:27:47;;;;;;;40.67;28.27;;;5.60;72.50;;;4.61;58.29;95130.50;5073846;28;20229;-81
2021/10/29 01:30:14;;;;;;;42.17;27.35;;;5.60;72.50;;;4.58;57.89;95120.38;5055757;28;20275;-82
2021/10/29 01:32:42;;;;;;;38.63;26.67;;;5.50;72.60;;;4.55;58.17;95115.47;5054986;28;20227;-82
2021/10/29 01:35:13;;;;;;;40.50;27.88;;;5.50;72.70;;;4.54;58.10;95123.41;5088135;28;20659;-81
2021/10/29 01:37:41;;;;;;;40.60;28.55;;;5.50;72.70;;;4.54;58.12;95124.25;5055034;28;20707;-81
2021/10/29 01:40:18;;;;;;;44.85;28.30;;;5.40;72.60;;;4.53;58.17;95126.97;5083596;28;20258;-82
2021/10/29 01:42:47;;;;;;;39.08;26.63;;;5.40;72.80;;;4.51;58.49;95121.13;5054971;28;20268;-81
2021/10/29 01:45:16;;;;;;;40.20;27.83;;;5.40;72.70;;;4.50;58.20;95122.91;5054908;28;20245;-82
2021/10/29 01:47:43;;;;;;;39.92;27.00;;;5.50;72.70;;;4.47;58.52;95116.22;5082380;28;20246;-81
2021/10/29 01:50:11;;;;;;;38.58;26.70;;;5.40;72.70;;;4.47;58.41;95105.03;5081720;28;20716;-82
2021/10/29 01:52:38;;;;;;;44.25;29.10;;;5.40;72.70;;;4.45;58.47;95101.75;5069427;28;20253;-82
2021/10/29 01:55:07;;;;;;;41.85;27.10;;;5.40;72.70;;;4.46;58.44;95108.59;5074158;28;20182;-82
2021/10/29 01:57:35;;;;;;;41.75;27.88;;;5.30;72.60;;;4.43;58.32;95099.31;5074102;28;20219;-81
2021/10/29 02:00:06;;;;;;;44.45;27.50;;;5.40;72.60;;;4.41;58.32;95100.44;5057957;28;20475;-82
2021/10/29 02:02:42;;;;;;;41.45;28.05;;;5.30;72.60;;;4.41;58.53;95109.03;5075367;28;20253;-81
2021/10/29 02:05:10;;;;;;;39.55;26.90;;;5.30;72.60;;;4.36;58.14;95093.09;5075500;28;20194;-82
2021/10/29 02:07:38;;;;;;;41.58;27.80;;;5.30;72.60;;;4.39;58.50;95089.38;5074272;28;20215;-82
2021/10/29 02:10:06;;;;;;;44.83;27.83;;;5.30;72.60;;;4.38;58.50;95096.38;5069493;28;20215;-82
2021/10/29 02:12:33;;;;;;;40.45;27.77;;;5.30;72.60;;;4.38;58.79;95093.75;5070774;28;20219;-82
2021/10/29 02:15:00;;;;;;;38.65;27.13;;;5.30;72.60;;;4.33;58.68;95080.38;5070972;28;20195;-82
2021/10/29 02:17:28;;;;;;;40.75;27.50;;;5.30;72.60;;;4.36;58.56;95094.84;5059036;28;20298;-82
2021/10/29 02:19:55;;;;;;;40.22;27.17;;;5.30;72.60;;;4.34;58.62;95095.00;5054433;28;20269;-82
2021/10/29 02:22:22;;;;;;;42.80;27.92;;;5.20;72.50;;;4.33;58.76;95093.38;5066108;28;20234;-82
2021/10/29 02:24:50;;;;;;;41.90;28.73;;;5.30;72.60;;;4.30;58.57;95084.09;5054427;28;20294;-82
2021/10/29 02:27:17;;;;;;;43.85;27.77;;;5.20;72.50;;;4.29;58.49;95082.47;5054210;28;20735;-82
2021/10/29 02:29:44;;;;;;;41.05;27.20;;;5.20;72.60;;;4.28;58.84;95082.63;5082380;28;20701;-80
2021/10/29 02:32:12;;;;;;;43.05;28.42;;;5.20;72.50;;;4.26;58.75;95079.34;5065365;28;20214;-81
2021/10/29 02:34:39;;;;;;;39.10;26.63;;;5.20;72.50;;;4.23;58.61;95072.69;5092885;28;20237;-82
2021/10/29 02:37:07;;;;;;;40.17;27.40;;;5.20;72.50;;;4.25;58.79;95085.53;5069689;28;20610;-81
2021/10/29 02:39:34;;;;;;;41.20;28.08;;;5.20;72.50;;;4.23;58.70;95080.47;5078414;28;20222;-82
2021/10/29 02:42:04;;;;;;;38.63;27.08;;;5.10;72.50;;;4.16;58.87;95074.22;5076560;28;20243;-82
2021/10/29 02:44:32;;;;;;;40.88;27.70;;;5.10;72.60;;;4.22;59.06;95076.22;5085167;28;20212;-81
2021/10/29 02:46:59;;;;;;;42.30;27.35;;;5.10;72.70;;;4.14;59.16;95071.00;5104887;28;20498;-82
2021/10/29 02:49:26;;;;;;;39.33;27.50;;;5.10;72.80;;;4.21;58.49;95076.38;5101025;28;20218;-81
2021/10/29 02:51:54;;;;;;;41.58;27.17;;;5.10;72.80;;;4.19;59.01;95079.13;5069034;28;20214;-81
2021/10/29 02:54:21;;;;;;;40.58;26.98;;;5.10;72.90;;;4.13;59.15;95067.56;5083689;28;20217;-82
2021/10/29 02:56:48;;;;;;;41.15;26.88;;;5.10;72.90;;;4.20;58.97;95079.94;5086251;28;20301;-81
2021/10/29 02:59:16;;;;;;;39.85;27.17;;;5.10;73.10;;;4.21;59.16;95081.56;5084157;28;20221;-82
2021/10/29 03:01:43;;;;;;;39.95;27.42;;;5.10;73.10;;;4.19;59.03;95081.72;5083111;28;20290;-82
2021/10/29 03:04:10;;;;;;;41.50;27.70;;;5.10;73.10;;;4.20;58.96;95080.78;5084840;28;20247;-81
2021/10/29 03:06:37;;;;;;;38.45;27.13;;;5.10;73.10;;;4.19;59.04;95092.13;5102307;28;20680;-82
2021/10/29 03:09:05;;;;;;;41.13;27.85;;;5.10;73.10;;;4.13;58.79;95075.34;5078226;28;20206;-80
2021/10/29 03:11:32;;;;;;;41.53;27.35;;;5.10;73.20;;;4.18;59.06;95084.50;5083566;28;20292;-81
2021/10/29 03:13:59;;;;;;;43.60;28.08;;;5.10;73.20;;;4.15;59.15;95072.59;5068277;28;20209;-81
2021/10/29 03:16:27;;;;;;;44.33;27.98;;;5.10;74.10;;;4.10;59.22;95070.47;5094591;28;20552;-81
2021/10/29 03:18:54;;;;;;;48.78;28.95;;;5.00;73.10;;;4.11;59.19;95073.88;5068962;28;20685;-82
2021/10/29 03:21:21;;;;;;;45.72;29.35;;;5.00;73.10;;;4.11;59.17;95077.28;5086851;28;20301;-81
2021/10/29 03:23:48;;;;;;;41.85;27.02;;;5.00;73.10;;;4.06;59.11;95070.91;5089665;28;20197;-83
2021/10/29 03:26:16;;;;;;;40.53;27.33;;;5.00;73.20;;;4.06;58.82;95076.91;5096282;28;20214;-81
2021/10/29 03:28:43;;;;;;;40.75;27.55;;;5.00;73.10;;;4.01;59.23;95074.75;5075991;28;20201;-82
2021/10/29 03:31:10;;;;;;;40.97;27.83;;;5.00;73.20;;;4.00;59.08;95070.53;5074180;28;20700;-82
2021/10/29 03:33:39;;;;;;;40.45;27.35;;;4.90;73.10;;;4.01;59.42;95071.34;5077410;28;20196;-82
2021/10/29 03:36:07;;;;;;;39.72;27.40;;;4.90;73.20;;;4.00;59.20;95074.88;5078004;28;20692;-83
2021/10/29 03:38:53;;;;;;;38.63;27.67;;;4.90;73.20;;;3.96;59.57;95071.78;5083256;28;20194;-81
2021/10/29 03:41:22;;;;;;;42.08;28.13;;;4.90;73.20;;;3.97;59.39;95077.78;5080172;28;20251;-83
2021/10/29 03:46:35;;;;;;;47.05;28.13;;;4.90;73.20;;;3.93;59.43;95066.06;5082644;28;20316;-81
2021/10/29 03:49:13;;;;;;;45.53;28.83;;;4.90;73.30;;;3.92;59.42;95059.22;5054637;28;20242;-82
2021/10/29 03:51:48;;;;;;;41.53;28.63;;;4.90;73.30;;;3.89;59.46;95059.53;5059778;28;20223;-82
2021/10/29 03:54:21;;;;;;;41.28;26.73;;;4.80;73.30;;;3.89;59.58;95062.13;5079369;28;20655;-81
2021/10/29 03:59:29;;;;;;;42.90;26.77;;;4.80;73.30;;;3.87;59.58;95058.84;5088967;28;20647;-82
2021/10/29 04:01:57;;;;;;;39.38;26.60;;;4.80;73.40;;;3.83;59.47;95053.97;5072808;28;20249;-82
2021/10/29 04:04:24;;;;;;;44.03;27.77;;;4.80;73.40;;;3.84;59.44;95054.78;5057718;28;20608;-83
2021/10/29 04:06:52;;;;;;;39.83;27.85;;;4.80;73.40;;;3.79;59.77;95050.03;5055837;28;20735;-81
2021/10/29 04:09:19;;;;;;;43.03;27.48;;;4.80;73.40;;;3.78;59.51;95052.78;5067939;28;20202;-82
2021/10/29 04:11:46;;;;;;;40.47;27.50;;;4.70;73.40;;;3.79;59.58;95055.22;5073477;28;20225;-82
2021/10/29 04:14:14;;;;;;;40.17;27.02;;;4.70;73.40;;;3.76;59.59;95050.34;5089087;28;20648;-83
2021/10/29 04:16:43;;;;;;;39.45;27.42;;;4.70;73.40;;;3.75;59.57;95053.88;5073427;28;20260;-81
2021/10/29 04:19:10;;;;;;;42.53;28.30;;;4.70;73.50;;;3.74;59.80;95060.03;5069874;28;20234;-83
2021/10/29 04:21:38;;;;;;;38.67;27.50;;;4.70;73.50;;;3.71;59.55;95056.91;5066557;28;20711;-82
2021/10/29 04:24:07;;;;;;;45.40;29.42;;;4.70;73.50;;;3.72;59.72;95054.16;5075032;28;20629;-83
2021/10/29 04:26:36;;;;;;;47.28;29.05;;;4.70;73.50;;;3.71;59.87;95056.91;5076122;28;20218;-82
2021/10/29 04:29:13;;;;;;;41.90;28.67;;;4.70;73.60;;;3.62;59.90;95054.22;5055852;28;20268;-82
2021/10/29 04:31:50;;;;;;;42.17;28.40;;;4.60;73.50;;;3.65;59.94;95058.31;5067715;28;20254;-82
2021/10/29 04:34:24;;;;;;;41.10;26.90;;;4.70;74.00;;;3.62;59.75;95048.22;5076618;28;20186;-80
2021/10/29 04:36:55;;;;;;;41.80;27.30;;;4.60;73.70;;;3.64;60.04;95060.09;5075183;28;20749;-82
2021/10/29 04:39:22;;;;;;;48.80;29.92;;;4.60;73.60;;;3.63;59.84;95057.66;5075091;28;20313;-82
2021/10/29 04:41:50;;;;;;;44.25;28.65;;;4.60;73.60;;;3.63;59.86;95057.66;5075863;28;20226;-81
2021/10/29 04:44:22;;;;;;;42.15;28.60;;;4.60;73.70;;;3.64;60.05;95060.09;5091819;28;20549;-82
2021/10/29 04:46:51;;;;;;;44.03;27.55;;;4.60;74.20;;;3.62;60.21;95048.22;5081359;28;20215;-82
2021/10/29 04:49:19;;;;;;;45.72;28.60;;;4.60;73.90;;;3.64;60.01;95051.50;5075458;28;20279;-82
2021/10/29 04:51:46;;;;;;;42.13;27.83;;;4.60;73.90;;;3.63;60.10;95047.28;5088426;28;20260;-82
2021/10/29 04:54:13;;;;;;;42.88;28.73;;;4.60;73.90;;;3.61;60.12;95031.03;5075357;28;20293;-81
2021/10/29 04:56:43;;;;;;;41.92;27.50;;;4.50;74.00;;;3.69;60.22;95049.28;5092140;28;20210;-82
2021/10/29 04:59:13;;;;;;;55.13;32.75;;;4.60;74.00;;;3.70;59.81;95048.31;5071768;28;20223;-81
2021/10/29 05:01:40;;;;;;;88.68;48.58;;;4.60;74.10;;;3.70;60.16;95040.53;5055944;28;20230;-82
2021/10/29 05:04:07;;;;;;;67.88;42.70;;;4.60;74.00;;;3.69;59.81;95055.28;5055452;28;20210;-82
2021/10/29 05:06:35;;;;;;;54.95;36.78;;;4.60;73.90;;;3.68;59.92;95039.88;5056461;28;20227;-80
2021/10/29 05:09:02;;;;;;;50.15;36.67;;;4.60;73.90;;;3.66;60.24;95042.63;5073134;28;20228;-81
2021/10/29 05:11:30;;;;;;;44.95;30.13;;;4.60;73.90;;;3.65;60.02;95042.75;5066450;28;20241;-82
2021/10/29 05:13:57;;;;;;;46.45;30.50;;;4.60;73.90;;;3.58;60.11;95031.34;5051538;28;20677;-81
2021/10/29 05:16:24;;;;;;;43.85;29.75;;;4.60;73.90;;;3.62;60.41;95035.25;5054035;28;20651;-82
2021/10/29 05:18:57;;;;;;;45.28;29.33;;;4.60;74.00;;;3.61;59.77;95038.81;5088913;28;20210;-82
2021/10/29 05:21:24;;;;;;;40.15;28.55;;;4.50;74.00;;;3.61;60.17;95036.22;5055428;28;20711;-81
2021/10/29 05:23:51;;;;;;;46.92;30.70;;;4.50;74.00;;;3.53;60.09;95036.97;5088458;28;20187;-82
2021/10/29 05:26:19;;;;;;;42.70;28.33;;;4.50;74.00;;;3.55;60.10;95032.41;5065839;28;20253;-82
2021/10/29 05:28:46;;;;;;;40.97;27.60;;;4.50;74.00;;;3.56;60.19;95036.66;5072922;28;20620;-83
2021/10/29 05:31:14;;;;;;;43.78;29.23;;;4.50;74.00;;;3.56;60.29;95033.25;5071184;28;20773;-81
2021/10/29 05:33:41;;;;;;;40.10;27.65;;;4.50;74.00;;;3.53;59.99;95037.75;5073723;28;20235;-83
2021/10/29 05:36:08;;;;;;;39.65;26.52;;;4.50;74.00;;;3.52;60.39;95033.53;5070420;28;20231;-82
2021/10/29 05:38:35;;;;;;;38.00;26.33;;;4.50;74.10;;;3.52;60.54;95030.94;5058814;28;20205;-82
2021/10/29 05:41:03;;;;;;;37.95;26.63;;;4.50;74.10;;;3.52;60.82;95033.53;5074397;28;20219;-83
2021/10/29 05:43:30;;;;;;;46.70;27.65;;;4.40;74.10;;;3.53;60.30;95031.78;5068748;28;20204;-82
2021/10/29 05:45:57;;;;;;;40.70;27.52;;;4.50;74.20;;;3.48;60.47;95021.03;5069636;28;20282;-81
2021/10/29 05:48:24;;;;;;;42.33;27.88;;;4.40;74.10;;;3.53;60.42;95035.16;5069459;28;20203;-83
2021/10/29 05:50:54;;;;;;;44.17;28.02;;;4.40;74.20;;;3.46;60.40;95018.56;5074805;28;20787;-81
2021/10/29 05:53:35;;;;;;;45.80;27.05;;;4.50;74.30;;;3.51;60.54;95034.50;5081656;28;20568;-82
2021/10/29 05:56:03;;;;;;;39.50;26.17;;;4.50;74.30;;;3.53;60.50;95029.19;5090000;28;20191;-83
2021/10/29 05:58:32;;;;;;;44.00;28.42;;;4.40;74.20;;;3.56;60.77;95030.66;5091136;28;20198;-80
2021/10/29 06:00:59;;;;;;;42.28;27.90;;;4.50;74.30;;;3.55;60.69;95032.41;5054974;28;20218;-79
2021/10/29 06:03:28;;;;;;;39.05;27.38;;;4.40;74.30;;;3.54;60.45;95030.81;5055812;28;20198;-82
2021/10/29 06:05:55;;;;;;;50.75;27.50;;;4.40;74.20;;;3.51;60.26;95024.13;5090762;28;20207;-82
2021/10/29 06:08:22;;;;;;;44.63;28.30;;;4.40;75.10;;;3.57;60.44;95033.09;5090745;28;20248;-83
2021/10/29 06:10:50;;;;;;;46.83;28.60;;;4.40;74.40;;;3.55;60.40;95027.22;5072673;28;20264;-82
2021/10/29 06:13:18;;;;;;;41.45;27.38;;;4.50;74.50;;;3.61;60.59;95031.03;5075181;28;20599;-82
2021/10/29 06:15:46;;;;;;;41.50;28.33;;;4.50;74.60;;;3.63;60.88;95037.72;5075125;28;20195;-82
2021/10/29 06:18:22;;;;;;;42.67;27.52;;;4.50;74.70;;;3.67;60.92;95043.41;5050310;28;20188;-81
2021/10/29 06:20:51;;;;;;;37.20;25.73;;;4.50;74.80;;;3.69;61.04;95033.72;5060805;28;20461;-82
2021/10/29 06:23:21;;;;;;;43.60;26.85;;;4.50;74.70;;;3.73;60.66;95027.25;5058480;28;20195;-82
2021/10/29 06:25:55;;;;;;;41.90;26.73;;;4.50;74.80;;;3.75;60.99;95027.94;5093418;28;20183;-82
2021/10/29 06:30:52;;;;;;;41.05;26.50;;;4.60;74.90;;;3.85;60.58;95036.47;5078246;28;20240;-80
2021/10/29 06:33:23;;;;;;;37.10;25.02;;;4.60;74.90;;;3.89;60.65;95038.78;5078482;28;20683;-80
2021/10/29 06:35:53;;;;;;;41.35;25.77;;;4.60;75.00;;;3.94;60.82;95042.56;5095004;28;20198;-81
2021/10/29 06:38:21;;;;;;;46.20;28.20;;;4.70;75.20;;;3.98;60.71;95041.31;5071392;28;20257;-81
2021/10/29 06:40:50;;;;;;;53.83;28.23;;;4.70;75.00;;;4.04;60.66;95039.91;5057931;28;20222;-81
2021/10/29 06:43:37;;;;;;;44.17;27.83;;;4.70;75.00;;;4.09;60.82;95040.28;5058070;28;20246;-82
2021/10/29 06:59:51;;;;;;;45.40;28.95;;;5.00;75.30;;;4.46;61.22;95046.25;5060432;28;20217;-82
2021/10/29 07:05:03;;;;;;;45.95;30.70;;;5.10;75.40;;;4.58;61.57;95042.44;5057857;28;20203;-81
2021/10/29 07:40:51;;;;;;;32.75;23.98;;;6.10;76.30;;;5.85;61.36;95049.75;5059843;28;20223;-79
2021/10/29 07:43:55;;;;;;;38.45;25.50;;;6.20;76.40;;;5.94;61.22;95043.56;5059058;28;20207;-79
2021/10/29 07:46:11;;;;;;;34.97;25.17;;;6.30;76.40;;;6.09;61.60;95055.03;5071281;28;20216;-79
2021/10/29 07:48:39;;;;;;;39.03;27.00;;;6.40;76.40;;;6.20;61.35;95047.84;5072415;28;20233;-78
2021/10/29 07:51:06;;;;;;;37.95;27.73;;;6.50;76.50;;;6.34;61.98;95054.25;5068947;28;20227;-79
2021/10/29 07:53:34;;;;;;;39.42;25.58;;;6.60;76.70;;;6.47;61.54;95049.34;5072947;28;20294;-79
2021/10/29 07:56:05;;;;;;;39.88;26.63;;;6.70;76.60;;;6.54;61.42;95049.50;5089345;28;20187;-79
2021/10/29 07:58:35;;;;;;;38.95;27.00;;;6.80;76.80;;;6.71;61.25;95051.16;5063449;28;20208;-80
2021/10/29 08:01:03;;;;;;;38.92;27.40;;;6.90;76.90;;;6.85;61.67;95052.25;5071662;28;20325;-79
2021/10/29 08:03:31;;;;;;;37.70;25.85;;;7.00;76.70;;;6.96;61.56;95042.47;5075837;28;20203;-79
2021/10/29 08:05:58;;;;;;;39.25;27.48;;;7.10;76.70;;;7.08;61.54;95053.34;5067292;28;20205;-79
2021/10/29 08:08:26;;;;;;;37.10;25.85;;;7.20;76.70;;;7.22;61.23;95047.47;5075845;28;20201;-79
2021/10/29 08:10:54;;;;;;;39.60;27.10;;;7.30;76.70;;;7.33;61.31;95052.31;5073172;28;20194;-79
2021/10/29 08:13:22;;;;;;;38.35;27.58;;;7.50;76.70;;;7.44;61.41;95051.13;5076332;28;20237;-80
2021/10/29 08:15:53;;;;;;;42.58;30.33;;;7.60;76.70;;;7.56;61.33;95045.56;5091510;28;20672;-79
2021/10/29 08:18:22;;;;;;;41.90;28.50;;;7.70;76.70;;;7.64;61.30;95042.91;5064483;28;20207;-79
2021/10/29 08:20:49;;;;;;;42.05;28.10;;;7.80;76.70;;;7.75;61.13;95039.94;5092779;28;20210;-79
2021/10/29 08:23:17;;;;;;;40.63;27.30;;;7.90;76.60;;;7.90;61.10;95044.41;5055793;28;20201;-79
2021/10/29 08:25:44;;;;;;;37.17;27.10;;;8.00;76.50;;;8.01;61.09;95039.59;5055111;28;20215;-80
2021/10/29 08:28:12;;;;;;;39.90;29.25;;;8.10;76.50;;;8.08;60.87;95036.31;5059051;28;20207;-79
2021/10/29 08:30:52;;;;;;;39.13;27.90;;;8.30;76.50;;;8.21;60.93;95033.94;5066578;28;20194;-80
2021/10/29 08:33:21;;;;;;;38.50;27.42;;;8.30;76.40;;;8.30;60.64;95035.50;5070891;28;20207;-81
2021/10/29 08:35:50;;;;;;;37.85;27.00;;;8.40;76.30;;;8.43;60.67;95034.91;5078919;28;20244;-80
2021/10/29 08:38:19;;;;;;;37.92;27.17;;;8.50;76.30;;;8.54;60.76;95036.31;5092323;28;20187;-80
2021/10/29 08:40:46;;;;;;;38.50;27.33;;;8.70;76.40;;;8.65;60.77;95035.09;5058770;28;20655;-80
2021/10/29 08:43:13;;;;;;;39.38;28.73;;;8.70;76.30;;;8.79;60.45;95034.31;5075710;28;20191;-79
2021/10/29 08:45:45;;;;;;;38.60;26.98;;;8.90;76.40;;;8.91;60.52;95034.72;5075352;28;20190;-81
2021/10/29 08:48:13;;;;;;;36.13;26.27;;;9.00;76.30;;;9.03;60.38;95035.06;5058746;28;20214;-80
2021/10/29 08:50:40;;;;;;;36.97;27.10;;;9.10;76.40;;;9.17;60.59;95036.09;5075208;28;20206;-80
2021/10/29 08:53:07;;;;;;;35.63;26.65;;;9.20;76.30;;;9.30;60.23;95035.44;5090994;28;20244;-80
2021/10/29 08:55:36;;;;;;;36.95;27.40;;;9.30;76.20;;;9.43;60.12;95033.00;5075067;28;20226;-80
2021/10/29 08:58:06;;;;;;;37.20;27.45;;;9.50;76.20;;;9.57;60.07;95031.38;5058718;28;20222;-80
2021/10/29 09:00:39;;;;;;;32.72;24.77;;;9.60;76.10;;;9.71;59.71;95027.09;5059073;28;20664;-80
2021/10/29 09:03:27;;;;;;;38.45;26.70;;;9.70;75.70;;;9.83;59.53;95026.66;5075213;28;20271;-81
2021/10/29 09:06:05;;;;;;;33.67;25.38;;;9.80;75.60;;;9.98;59.33;95018.75;5060373;28;20198;-80
2021/10/29 09:08:54;;;;;;;42.78;26.30;;;10.00;74.60;;;10.12;58.98;95019.69;5075209;28;20583;-80
2021/10/29 09:11:47;;;;;;;32.60;25.15;;;10.10;74.60;;;10.27;58.67;95019.66;5077329;28;20313;-80
2021/10/29 09:17:20;;;;;;;35.28;25.38;;;10.40;74.20;;;10.51;58.02;95014.06;5091881;28;20293;-81
2021/10/29 09:31:27;;;;;;;31.42;23.50;;;11.00;72.80;;;11.18;56.58;95008.47;5078822;28;20228;-79
2021/10/29 09:34:12;;;;;;;30.00;23.52;;;11.10;72.70;;;11.31;56.59;95007.75;5058666;28;20397;-79
2021/10/29 09:36:51;;;;;;;30.02;22.48;;;11.20;72.60;;;11.41;57.11;94999.50;5058108;28;20263;-80
2021/10/29 09:39:27;;;;;;;30.35;22.52;;;11.40;72.60;;;11.57;56.73;95011.50;5060287;28;20591;-80
2021/10/29 09:42:08;;;;;;;31.02;22.88;;;11.50;72.70;;;11.67;56.47;95015.38;5059809;28;20734;-80
2021/10/29 09:44:42;;;;;;;33.67;25.15;;;11.60;72.50;;;11.78;55.90;95003.50;5074092;28;20197;-80
2021/10/29 09:47:11;;;;;;;32.78;24.58;;;11.70;71.90;;;11.88;55.76;94999.69;5074348;28;20245;-80
2021/10/29 09:49:54;;;;;;;35.08;25.20;;;11.80;72.10;;;11.97;55.20;95009.88;5058063;28;20284;-80
2021/10/29 09:57:30;;;;;;;31.13;23.60;;;12.10;71.60;;;12.27;55.39;94998.22;5091111;28;20221;-80
2021/10/29 09:59:59;;;;;;;29.90;22.13;;;12.20;71.80;;;12.38;55.42;94996.78;5074637;28;20202;-80
2021/10/29 10:02:29;;;;;;;28.25;22.85;;;12.30;71.70;;;12.47;55.22;95000.84;5074407;28;20594;-80
2021/10/29 10:04:59;;;;;;;31.75;24.17;;;12.40;71.50;;;12.56;55.02;94998.81;5058033;28;20611;-80
2021/10/29 10:07:35;;;;;;;31.25;23.63;;;12.50;71.50;;;12.64;55.20;94982.84;5057802;28;20257;-80
2021/10/29 10:10:07;;;;;;;34.53;24.63;;;12.60;71.10;;;12.77;54.59;94993.38;5057646;28;20247;-80
2021/10/29 10:12:39;;;;;;;29.92;22.77;;;12.60;71.30;;;12.87;54.97;94986.88;5074297;28;20267;-80
2021/10/29 10:15:08;;;;;;;29.05;22.88;;;12.80;71.40;;;12.98;54.40;94994.97;5091090;28;20532;-80
2021/10/29 10:17:36;;;;;;;33.97;22.65;;;12.80;71.10;;;13.11;54.59;94996.78;5057567;28;20214;-80
2021/10/29 10:20:06;;;;;;;29.80;24.40;;;13.00;71.20;;;13.22;54.34;94994.50;5074237;28;20229;-80
2021/10/29 10:22:41;;;;;;;37.83;24.38;;;13.00;70.80;;;13.29;54.03;94996.13;5074368;28;20222;-80
2021/10/29 10:25:33;;;;;;;29.00;23.67;;;13.10;70.60;;;13.38;53.54;94996.75;5074882;28;20182;-80
2021/10/29 10:42:45;;;;;;;29.80;23.20;;;13.70;70.10;;;13.84;53.38;94978.31;5076564;28;20295;-81
2021/10/29 10:47:51;;;;;;;36.13;25.30;;;13.80;69.70;;;13.98;52.21;94961.41;5073891;28;20221;-80
2021/10/29 10:50:27;;;;;;;32.50;23.92;;;13.90;69.40;;;14.02;52.10;94967.88;5074384;28;20194;-80
2021/10/29 10:56:27;;;;;;;31.48;24.83;;;14.10;68.80;;;14.14;51.72;94956.66;5079899;28;20259;-80
2021/10/29 11:11:13;;;;;;;31.90;24.92;;;14.40;68.30;;;14.65;50.37;94949.59;5083368;28;20255;-80
2021/10/29 11:13:43;;;;;;;32.92;25.08;;;14.50;67.90;;;14.77;50.34;94942.63;5072667;28;20194;-80
2021/10/29 11:16:15;;;;;;;32.53;24.75;;;14.70;67.70;;;14.91;50.52;94947.78;5090871;28;20218;-79
2021/10/29 11:19:13;;;;;;;33.42;24.80;;;14.80;68.00;;;15.06;50.42;94950.84;5057849;28;20197;-80
2021/10/29 11:21:54;;;;;;;30.83;23.13;;;14.90;67.80;;;15.24;50.71;94951.91;5088204;28;20316;-79
2021/10/29 11:24:36;;;;;;;29.83;23.38;;;15.00;67.80;;;15.41;50.56;94949.50;5074573;28;20206;-80
2021/10/29 11:27:17;;;;;;;30.73;22.75;;;15.20;67.70;;;15.57;50.95;94940.94;5076397;28;20225;-80
2021/10/29 11:29:52;;;;;;;28.95;22.90;;;15.40;68.00;;;15.75;50.15;94941.97;5076675;28;20206;-79
2021/10/29 11:32:25;;;;;;;30.67;23.45;;;15.50;68.60;;;15.87;50.12;94926.97;5085616;28;20263;-79
2021/10/29 11:35:03;;;;;;;29.35;23.52;;;15.70;68.00;;;16.09;50.44;94935.22;5073196;28;20268;-80
2021/10/29 11:37:37;;;;;;;33.13;23.38;;;15.80;67.60;;;16.19;49.74;94920.63;5042189;28;20692;-79
2021/10/29 11:40:06;;;;;;;32.53;24.85;;;15.90;67.80;;;16.37;49.31;94931.13;5057610;28;20229;-79
2021/10/29 11:42:34;;;;;;;31.27;23.92;;;16.10;67.50;;;16.52;49.48;94928.03;5082325;28;20225;-79
2021/10/29 11:45:03;;;;;;;31.65;22.63;;;16.20;67.40;;;16.66;49.32;94920.66;5093461;28;20243;-80
2021/10/29 11:47:36;;;;;;;29.23;22.88;;;16.40;67.30;;;16.80;48.85;94915.97;5067906;28;20253;-80
2021/10/29 11:50:12;;;;;;;30.50;23.00;;;16.60;67.40;;;16.95;48.47;94919.00;5093602;28;20632;-80
2021/10/29 11:52:44;;;;;;;32.72;23.55;;;16.70;66.60;;;17.07;47.89;94920.81;5062485;28;20218;-80
2021/10/29 11:55:38;;;;;;;30.48;23.27;;;16.80;66.10;;;17.21;47.95;94916.06;5075111;28;20608;-80
2021/10/29 11:58:19;;;;;;;29.15;22.42;;;17.00;66.00;;;17.36;48.28;94916.41;5077022;28;20263;-80
2021/10/29 12:01:06;;;;;;;26.35;22.30;;;17.10;66.40;;;17.51;47.72;94912.44;5080154;28;20245;-81
2021/10/29 12:09:29;;;;;;;29.67;22.70;;;17.50;65.40;;;17.97;47.44;94908.03;5077060;28;20239;-79
2021/10/29 12:12:09;;;;;;;25.38;21.40;;;17.70;65.70;;;18.17;46.73;94906.78;5070746;28;20218;-80
2021/10/29 12:14:43;;;;;;;24.98;21.27;;;17.80;65.20;;;18.33;46.47;94895.34;5056660;28;20202;-80
2021/10/29 12:17:27;;;;;;;25.63;22.15;;;17.90;65.30;;;18.53;46.36;94904.72;5039568;28;20271;-81
2021/10/29 12:19:59;;;;;;;24.80;20.70;;;18.20;65.00;;;18.68;45.75;94880.22;5057445;28;20191;-81
2021/10/29 12:22:49;;;;;;;26.98;21.63;;;18.30;65.00;;;18.86;45.48;94879.94;5083188;28;20230;-81
2021/10/29 12:28:21;;;;;;;27.35;21.42;;;18.70;64.80;;;19.28;45.06;94862.69;5077732;28;20198;-81